createdAt,value
2022-12-23T00:01:18.493Z,-1.82
2022-12-23T00:07:20.470Z,-1.81
2022-12-23T00:13:43.377Z,-2.04
2022-12-23T00:19:45.933Z,-2.09
2022-12-23T00:25:48.402Z,-1.95
2022-12-23T00:31:50.358Z,-2.63
2022-12-23T00:37:52.310Z,-2.56
2022-12-23T00:43:54.791Z,-2.31
2022-12-23T00:49:57.257Z,-1.90
2022-12-23T00:55:59.719Z,-1.93
2022-12-23T01:02:20.405Z,-1.90
2022-12-23T01:08:22.711Z,-2.56
2022-12-23T01:14:26.210Z,-2.93
2022-12-23T01:20:27.930Z,-3.86
2022-12-23T01:26:33.149Z,-3.16
2022-12-23T01:32:37.608Z,-2.67
2022-12-23T01:38:40.078Z,-3.25
2022-12-23T01:45:04.628Z,-2.35
2022-12-23T01:51:26.831Z,-2.34
2022-12-23T01:57:30.041Z,-2.74
2022-12-23T02:03:46.127Z,-2.70
2022-12-23T02:09:48.579Z,-3.01
2022-12-23T02:16:19.212Z,-2.50
2022-12-23T02:22:44.715Z,-3.53
2022-12-23T02:29:20.353Z,-2.67
2022-12-23T02:35:30.797Z,-2.70
2022-12-23T02:41:32.513Z,-3.57
2022-12-23T02:48:03.479Z,-2.85
2022-12-23T02:54:11.289Z,-2.85
2022-12-23T03:00:18.783Z,-2.98
2022-12-23T03:06:31.273Z,-2.85
2022-12-23T03:13:01.844Z,-2.93
2022-12-23T03:19:42.457Z,-2.96
2022-12-23T03:26:03.990Z,-3.24
2022-12-23T03:32:08.479Z,-3.61
2022-12-23T03:38:14.969Z,-4.50
2022-12-23T03:44:22.452Z,-3.74
2022-12-23T03:50:26.929Z,-3.05
2022-12-23T03:56:39.457Z,-3.18
2022-12-23T04:03:00.145Z,-3.29
2022-12-23T04:09:03.467Z,-3.20
2022-12-23T04:15:12.855Z,-3.24
2022-12-23T04:21:15.212Z,-2.99
2022-12-23T04:27:31.948Z,-3.11
2022-12-23T04:33:34.398Z,-4.56
2022-12-23T04:39:37.861Z,-4.39
2022-12-23T04:45:40.345Z,-3.58
2022-12-23T04:51:42.770Z,-3.34
2022-12-23T04:57:47.400Z,-3.33
2022-12-23T05:03:49.729Z,-3.25
2022-12-23T05:09:52.155Z,-3.74
2022-12-23T05:15:58.103Z,-3.87
2022-12-23T05:22:01.058Z,-4.06
2022-12-23T05:28:03.464Z,-3.43
2022-12-23T05:34:08.437Z,-3.40
2022-12-23T05:40:10.581Z,-3.64
2022-12-23T05:46:13.040Z,-4.29
2022-12-23T05:52:16.419Z,-4.47
2022-12-23T05:58:18.899Z,-5.03
2022-12-23T06:04:21.419Z,-3.52
2022-12-23T06:10:23.807Z,-3.32
2022-12-23T06:16:28.966Z,-3.71
2022-12-23T06:22:31.736Z,-4.23
2022-12-23T06:28:34.207Z,-4.44
2022-12-23T06:34:36.734Z,-4.07
2022-12-23T06:40:39.149Z,-3.57
2022-12-23T06:46:43.595Z,-3.71
2022-12-23T06:52:48.264Z,-3.37
2022-12-23T06:58:50.550Z,-3.95
2022-12-23T07:04:53.017Z,-4.83
2022-12-23T07:11:02.504Z,-3.47
2022-12-23T07:17:04.988Z,-3.09
2022-12-23T07:23:07.413Z,-3.57
2022-12-23T07:29:09.902Z,-3.21
2022-12-23T07:35:12.391Z,-3.13
2022-12-23T07:41:14.772Z,-2.64
2022-12-23T07:47:17.228Z,-2.87
2022-12-23T07:53:18.974Z,-2.88
2022-12-23T07:59:21.162Z,-2.40
2022-12-23T08:05:23.764Z,-1.98
2022-12-23T08:11:26.195Z,-1.99
2022-12-23T08:17:31.555Z,-2.10
2022-12-23T08:23:34.029Z,-2.37
2022-12-23T08:29:42.282Z,-1.76
2022-12-23T08:35:44.033Z,-1.25
2022-12-23T08:41:49.392Z,-1.86
2022-12-23T08:47:51.199Z,-1.18
2022-12-23T08:54:00.600Z,-0.39
2022-12-23T09:00:03.876Z,-0.12
2022-12-23T09:06:15.383Z,-0.01
2022-12-23T09:12:17.826Z,0.20
2022-12-23T09:18:20.283Z,0.15
2022-12-23T09:24:22.536Z,0.16
2022-12-23T09:30:25.207Z,0.36
2022-12-23T09:36:27.668Z,0.21
2022-12-23T09:42:51.217Z,1.08
2022-12-23T09:49:09.755Z,1.09
2022-12-23T09:55:14.266Z,0.99
2022-12-23T10:01:41.486Z,1.60
2022-12-23T10:07:52.498Z,2.08
2022-12-23T10:14:03.421Z,2.13
2022-12-23T10:20:16.314Z,2.28
2022-12-23T10:26:26.837Z,3.30
2022-12-23T10:32:38.383Z,2.26
2022-12-23T10:38:59.831Z,2.40
2022-12-23T10:45:15.350Z,3.19
2022-12-23T10:51:35.969Z,3.13
2022-12-23T10:57:41.385Z,3.50
2022-12-23T11:04:00.284Z,4.14
2022-12-23T11:10:24.074Z,3.91
2022-12-23T11:16:30.517Z,3.21
2022-12-23T11:22:35.436Z,4.26
2022-12-23T11:28:53.932Z,4.28
2022-12-23T11:34:56.537Z,4.56
2022-12-23T11:41:02.883Z,4.68
2022-12-23T11:47:23.435Z,4.61
2022-12-23T11:53:26.976Z,4.55
2022-12-23T11:59:34.395Z,4.82
2022-12-23T12:05:42.349Z,4.94
2022-12-23T12:12:01.138Z,4.74
2022-12-23T12:18:12.837Z,4.61
2022-12-23T12:24:31.004Z,4.86
2022-12-23T12:30:45.965Z,5.02
2022-12-23T12:37:03.405Z,4.69
2022-12-23T12:43:27.023Z,4.98
2022-12-23T12:49:46.556Z,5.12
2022-12-23T12:56:17.116Z,5.41
2022-12-23T13:02:46.974Z,4.74
2022-12-23T13:09:06.245Z,5.61
2022-12-23T13:15:25.136Z,5.36
2022-12-23T13:21:45.290Z,4.84
2022-12-23T13:27:59.796Z,5.36
2022-12-23T13:34:30.977Z,5.10
2022-12-23T13:40:41.455Z,5.43
2022-12-23T13:46:58.379Z,5.02
2022-12-23T13:53:21.967Z,5.30
2022-12-23T13:59:39.439Z,5.46
2022-12-23T14:05:47.924Z,4.98
2022-12-23T14:11:56.243Z,4.45
2022-12-23T14:18:25.059Z,4.79
2022-12-23T14:24:58.562Z,4.71
2022-12-23T14:31:04.214Z,3.14
2022-12-23T14:37:21.649Z,4.17
2022-12-23T14:43:24.080Z,2.59
2022-12-23T14:49:43.123Z,3.85
2022-12-23T14:55:47.057Z,3.04
2022-12-23T15:01:53.581Z,3.46
2022-12-23T15:07:58.029Z,3.17
2022-12-23T15:14:05.465Z,2.03
2022-12-23T15:20:10.985Z,2.37
2022-12-23T15:26:13.396Z,1.68
2022-12-23T15:32:16.885Z,2.92
2022-12-23T15:38:22.302Z,2.87
2022-12-23T15:44:27.754Z,2.64
2022-12-23T15:50:31.230Z,1.12
2022-12-23T15:56:41.446Z,2.47
2022-12-23T16:03:02.793Z,0.60
2022-12-23T16:09:14.767Z,1.02
2022-12-23T16:15:24.257Z,1.61
2022-12-23T16:21:32.487Z,1.87
2022-12-23T16:27:44.199Z,1.21
2022-12-23T16:33:52.685Z,1.73
2022-12-23T16:39:58.266Z,1.51
2022-12-23T16:46:06.762Z,0.84
2022-12-23T16:52:18.118Z,1.18
2022-12-23T16:58:20.562Z,0.97
2022-12-23T17:04:24.173Z,0.51
2022-12-23T17:10:26.871Z,1.19
2022-12-23T17:16:29.020Z,1.13
2022-12-23T17:22:34.418Z,1.22
2022-12-23T17:28:36.855Z,1.18
2022-12-23T17:34:39.325Z,-0.19
2022-12-23T17:40:42.810Z,0.47
2022-12-23T17:46:47.229Z,0.13
2022-12-23T17:52:49.690Z,-0.17
2022-12-23T17:58:52.183Z,0.46
2022-12-23T18:04:54.609Z,0.54
2022-12-23T18:10:59.068Z,-0.48
2022-12-23T18:17:01.631Z,0.43
2022-12-23T18:23:04.057Z,0.40
2022-12-23T18:29:07.452Z,-1.03
2022-12-23T18:35:26.988Z,-0.75
2022-12-23T18:41:29.438Z,0.09
2022-12-23T18:47:31.888Z,0.18
2022-12-23T18:53:34.369Z,0.10
2022-12-23T18:59:38.814Z,-1.52
2022-12-23T19:05:41.313Z,-2.28
2022-12-23T19:11:43.617Z,-1.38
2022-12-23T19:17:46.218Z,-0.37
2022-12-23T19:23:48.665Z,-0.25
2022-12-23T19:29:52.903Z,-0.20
2022-12-23T19:35:55.730Z,-0.14
2022-12-23T19:41:58.106Z,-0.65
2022-12-23T19:48:00.595Z,-0.71
2022-12-23T19:54:05.589Z,-0.54
2022-12-23T20:00:08.391Z,-0.26
2022-12-23T20:06:29.035Z,-0.86
2022-12-23T20:12:39.448Z,-0.25
2022-12-23T20:18:42.030Z,-0.46
2022-12-23T20:24:44.449Z,-0.02
2022-12-23T20:30:49.999Z,-0.22
2022-12-23T20:36:52.925Z,-1.10
2022-12-23T20:42:54.918Z,-0.50
2022-12-23T20:48:57.373Z,0.07
2022-12-23T20:55:01.933Z,-0.01
2022-12-23T21:01:12.406Z,-0.34
2022-12-23T21:07:14.805Z,-0.43
2022-12-23T21:13:17.245Z,0.40
2022-12-23T21:19:24.738Z,0.24
2022-12-23T21:25:27.171Z,0.40
2022-12-23T21:31:31.752Z,0.18
2022-12-23T21:37:37.120Z,-0.33
2022-12-23T21:43:39.618Z,0.20
2022-12-23T21:49:43.055Z,0.49
2022-12-23T21:55:45.508Z,0.50
2022-12-23T22:01:48.000Z,-0.51
2022-12-23T22:07:50.412Z,-0.14
2022-12-23T22:13:52.784Z,-0.04
2022-12-23T22:19:55.365Z,0.46
2022-12-23T22:25:57.829Z,0.23
2022-12-23T22:32:00.327Z,-0.33
2022-12-23T22:38:02.258Z,0.60
2022-12-23T22:44:07.186Z,-0.15
2022-12-23T22:50:09.306Z,0.20
2022-12-23T22:56:14.122Z,0.08
2022-12-23T23:02:16.639Z,0.27
2022-12-23T23:08:19.075Z,-0.59
2022-12-23T23:14:21.553Z,0.48
2022-12-23T23:20:23.986Z,0.52
2022-12-23T23:26:28.552Z,0.22
2022-12-23T23:32:31.075Z,0.17
2022-12-23T23:38:33.432Z,0.28
2022-12-23T23:44:36.969Z,0.66
2022-12-23T23:50:40.396Z,1.05
2022-12-23T23:56:42.864Z,0.73
